Airfield :
LOGIN :

Register | Disclaimer

   EN    FR    IT 

 










Legend :    VFR   Marginal VFR   IFR   Intensive IFR   Very Intensive IFR
Visi :
Ceiling :
>= 8 km
>= 3000ft
5 to 8 km
1000 to 3000 ft
1500m to 5 km
500 to 1000 ft
800 to 1500m
200 to 500 ft
< 800m
< 200 ft
Symbols :   Thunderstorms  Fog  Heavy snow  Heavy precipitations  Wind > 20 kt
SIGMETs :     Misc.  Thunderstorms  Icing  Turbulence  Mountain Waves  Volcanic Ashes







- Airport Elevation : 202 ft
- IATA code : LGW
- Download approach charts


EGKK - London Gatwick

CURRENT METAR :
  • 200420Z 22011KT 9999 BKN014 17/15 Q1013

EXPIRED METARs :
  • 200350Z 22011KT 190V250 9999 BKN014 18/15 Q1013
  • 200320Z 21009KT 180V250 9999 BKN014 17/15 Q1014
  • 200250Z 21010KT 170V230 9999 BKN013 17/15 Q1014
  • 200220Z 21010KT 9999 BKN013 BKN033 18/15 Q1014
  • 200150Z 20009KT 160V240 9999 BKN012 OVC049 17/15 Q1014

TAF AMD TAF EGKK
Valid from the 20 at 03:00 until the 21 at 06:00 UTC


200327Z 2003/2106 21010KT 9999 BKN014
BECMG 2003/2006 SCT030
PROB30
TEMPO 2003/2008 21015G25KT
BECMG 2008/2011 21018G30KT
TEMPO 2021/2102 21022G42KT 7000 RA BKN012
PROB40
TEMPO 2021/2102 4000 +RA
BECMG 2101/2104 24020G30KT
BECMG 2104/2106 26014KT
No reported NOTAMs for that airfield.
2 SIGMETs reported for the London FIR (EGTT) :
 
Severe turbulence
EGTT SIGMET 02 VALID 200100/200500 EGRR
EGTT LONDON FIR SEV TURB FCST WI N5500 E00000 - N5418 W00223 - N5500 W00530 - N5500 E00000 SFC/FL060 MOV N 05KT WKN=
Severe mountain waves
EGTT SIGMET 01 VALID 200100/200500 EGRR
EGTT LONDON FIR SEV MTW FCST WI N5500 E00020 - N5416 E00049 - N5314 W00250 - N5500 W00530 - N5500 E00020 FL030/250 MOV N 10KT WKN=



MET'MAP, your aeronautical weather chart ! - Copyright ORBIFLY December 2007 - Disclaimer

ORBIFLY MET'MAP TEAM :

Programming & Development : Alexandra Zaïnal
Concept & Development : Baudouin d'Aumeries
Co-Development & Prog : Marc-Olivier Méhu
Technical & hardware support : Manuel Goepfert

Contact : metmap@orbifly.com




SOURCES & CREDITS :

   NOAA